x

East Dellwood (46207) Wave Buoy

3:00am - Sat 24th Jun 2017 All times are PDT. -7 hours from GMT.

  • Sig Wave height 3.3ft
  • Peak Period 17s
  • Wind
    9mph, 11mph gusts
  • Sea Temp 56°f
  • Air Temp 63°f
  • Sea Pressure 1024.6mb
  • East Dellwood
  • East Dellwood

More Historic Weather Station data

Upgrade to MSW Pro to gain access to the past 30 days of data for over 8000 Wavebouys and Weather Stations around the globe.

Join Pro

Comparision Forecast

View Surf forecast
   
Sat 06/24 3:00am 3.5ft 17s 9 11 mph 1024.6mb 56f 63f
2:00am 3.5ft 17s 9 9 mph 1024.8mb 56f 63f
1:00am 3.5ft 17s 9 11 mph 1025.2mb 56f 63f
12:00am 3.5ft 17s 9 11 mph 1025.6mb 56f 63f
Fri 06/23 11:00pm 3.5ft 17s 11 13 mph 1026.1mb 56f 63f
10:00pm 3.5ft 17s 11 13 mph 1026.3mb 56f 63f
9:00pm 3.5ft 8s 11 16 mph 1026.5mb 56f 63f
8:00pm 3.5ft 17s 13 13 mph 1026.9mb 56f 63f
7:00pm 3.5ft 8s 11 13 mph 1027.3mb 56f 63f
6:00pm 3.5ft 18s 11 13 mph 1027.4mb 56f 63f
5:00pm 3.5ft 18s 11 13 mph 1027.6mb 56f 63f
4:00pm 3.5ft 18s 11 13 mph 1028.1mb 56f 63f
3:00pm 3.5ft 18s 13 16 mph 1028.1mb 56f 63f
2:00pm 3.5ft 18s 13 16 mph 1028.2mb 56f 62f
1:00pm 3.5ft 18s 13 13 mph 1028.3mb 56f 62f
12:00pm 4ft 18s 13 16 mph 1028.2mb 56f 62f
11:00am 3.5ft 8s 13 16 mph 1028mb 55f 62f
10:00am 3.5ft 18s 13 18 mph 1028mb 55f 62f
9:00am 3.5ft 18s 13 16 mph 1028.1mb 55f 62f
8:00am 3.5ft 18s 13 16 mph 1028.5mb 55f 62f
7:00am 3ft 16s 13 16 mph 1028.3mb 55f 62f
6:00am 3.5ft 18s 11 13 mph 1028.4mb 55f 62f
5:00am 3.5ft 18s 11 13 mph 1028.2mb 55f 62f
4:00am 3.5ft 16s 13 16 mph 1027.9mb 55f 62f
3:00am 3.5ft 14s 11 16 mph 1028.3mb 55f 62f
2:00am 3.5ft 8s 11 13 mph 1028.5mb 55f 62f
1:00am 3.5ft 17s 13 16 mph 1028.9mb 55f 62f
12:00am 3.5ft 8s 11 13 mph 1028.9mb 55f 62f
Thu 06/22 11:00pm 3.5ft 14s 13 16 mph 1029.1mb 55f 62f
10:00pm 3.5ft 7s 11 13 mph 1029.2mb 55f 62f
9:00pm 3.5ft 8s 11 13 mph 1029.2mb 56f 62f
8:00pm 3.5ft 8s 11 13 mph 1029.6mb 56f 62f
7:00pm 3.5ft 8s 11 13 mph 1029.8mb 56f 62f
6:00pm 3.5ft 8s 11 13 mph 1030.1mb 56f 62f
5:00pm 4ft 8s 9 11 mph 1030.3mb 56f 62f
4:00pm 4ft 8s 9 11 mph 1030.7mb 56f 62f
3:00pm 4.5ft 9s 9 11 mph 1030.7mb 56f 62f
2:00pm 4.5ft 8s 9 11 mph 1030.7mb 55f 62f
1:00pm 4.5ft 8s 9 11 mph 1030.6mb 55f 61f
12:00pm 4.5ft 9s 9 11 mph 1030.2mb 55f 61f
11:00am 4.5ft 8s 11 13 mph 1030.4mb 54f 61f
10:00am 5ft 9s 11 13 mph 1030.5mb 54f 61f
9:00am 5ft 8s 11 13 mph 1030.6mb 54f 61f
8:00am 5ft 9s 11 13 mph 1030.2mb 54f 61f
7:00am 5ft 9s 11 16 mph 1030.4mb 54f 61f
6:00am 5ft 10s 11 13 mph 1030.3mb 54f 61f
5:00am 4.5ft 10s 9 11 mph 1030.2mb 54f 61f
4:00am 5ft 10s 11 13 mph 1030.3mb 54f 61f
3:00am 5ft 9s 11 13 mph 1030.7mb 54f 61f
2:00am 5ft 10s 9 11 mph 1030.7mb 54f 61f
1:00am 5.5ft 10s 11 13 mph 1030.8mb 54f 61f
12:00am 5.5ft 10s 11 13 mph 1030.7mb 54f 61f
Wed 06/21 11:00pm 6ft 8s 9 11 mph 1030.8mb 54f 61f
10:00pm 6ft 10s 11 13 mph 1030.7mb 54f 61f
9:00pm 6.5ft 10s 11 13 mph 1030.4mb 54f 61f
8:00pm 7ft 10s 11 13 mph 1030.7mb 54f 61f
7:00pm 7ft 10s 11 16 mph 1030.8mb 55f 61f
6:00pm 6.5ft 10s 11 13 mph 1030.9mb 55f 62f
5:00pm 7ft 10s 11 16 mph 1030.8mb 55f 62f
4:00pm 7ft 10s 9 13 mph 1031mb 55f 62f
3:00pm 7ft 10s 11 13 mph 1030.9mb 54f 62f
2:00pm 7ft 10s 13 16 mph 1030.4mb 54f 61f
1:00pm 7.5ft 10s 9 13 mph 1030.2mb 54f 62f
12:00pm 8ft 10s 9 13 mph 1029.9mb 54f 61f
11:00am 7ft 9s 11 16 mph 1029.4mb 54f 61f
10:00am 7.5ft 10s 16 18 mph 1029mb 54f 61f
9:00am 7ft 10s 18 22 mph 1028.5mb 54f 61f
8:00am 7ft 9s 16 22 mph 1028mb 54f 61f
7:00am 7ft 10s 16 20 mph 1027.6mb 54f 61f
6:00am 7ft 10s 16 22 mph 1026.8mb 54f 61f
5:00am 7ft 10s 16 18 mph 1026.4mb 54f 61f
4:00am 7ft 10s 18 22 mph 1026mb 54f 60f
3:00am 7ft 8s 18 25 mph 1026.1mb 54f 61f
2:00am 7ft 9s 16 20 mph 1026.2mb 54f 60f
1:00am 7.5ft 9s 16 18 mph 1025.8mb 54f 61f
12:00am 7ft 8s 16 20 mph 1025.5mb 54f 61f
Tue 06/20 11:00pm 7ft 7s 18 20 mph 1025.3mb 54f 61f
10:00pm 7ft 8s 16 20 mph 1024.9mb 54f 61f
9:00pm 6ft 8s 16 18 mph 1024.7mb 54f 62f
8:00pm 6ft 7s 11 13 mph 1025mb 54f 61f
7:00pm 6ft 7s 22 29 mph 1024.7mb 54f 60f
6:00pm 5ft 9s 16 20 mph 1024.8mb 54f 62f
5:00pm 5ft 9s 16 20 mph 1024.8mb 54f 62f
4:00pm 5ft 10s 13 18 mph 1024.3mb 54f 61f
3:00pm 5ft 6s 18 20 mph 1024.2mb 54f 62f
2:00pm 5ft 6s 18 22 mph 1023.4mb 54f 62f
1:00pm 5.5ft 10s 18 22 mph 1022.7mb 54f 62f
12:00pm 5ft 9s 18 22 mph 1022.2mb 54f 61f